Time;durP1;ratioP1;P1;durP2;ratioP2;P2;SDS_P1;SDS_P2;PMS_P1;PMS_P2;Temp;Humidity;BMP_temperature;BMP_pressure;BME280_temperature;BME280_humidity;BME280_pressure;Samples;Min_cycle;Max_cycle;Signal;HPM_P1;HPM_P2
2023/09/16 00:01:12;;;;;;;6.25;3.75;;;14.70;99.90;;;;;;5044632;28;20170;-72
2023/09/16 00:03:38;;;;;;;8.35;4.38;;;14.70;99.90;;;;;;5014463;28;20196;-72
2023/09/16 00:06:04;;;;;;;7.00;4.00;;;14.70;99.90;;;;;;5032065;28;20250;-71
2023/09/16 00:08:32;;;;;;;7.55;4.03;;;14.70;99.90;;;;;;5032281;28;20193;-72
2023/09/16 00:10:58;;;;;;;9.15;4.15;;;14.70;99.90;;;;;;5032170;28;20707;-74
2023/09/16 00:13:23;;;;;;;8.50;4.50;;;14.60;99.90;;;;;;5039566;28;20232;-72
2023/09/16 00:15:49;;;;;;;8.75;4.47;;;14.50;99.90;;;;;;5034191;28;20644;-72
2023/09/16 00:18:16;;;;;;;12.68;4.90;;;14.60;99.90;;;;;;5033951;28;20608;-72
2023/09/16 00:20:42;;;;;;;8.27;4.38;;;14.50;99.90;;;;;;5051785;28;20243;-73
2023/09/16 00:23:09;;;;;;;9.27;4.55;;;14.50;99.90;;;;;;5033879;28;20667;-71
2023/09/16 00:25:36;;;;;;;7.50;4.60;;;14.60;99.90;;;;;;5051727;28;20690;-72
2023/09/16 00:28:02;;;;;;;8.50;4.95;;;14.50;99.90;;;;;;5051502;28;20181;-72
2023/09/16 00:30:28;;;;;;;7.70;4.55;;;14.30;99.90;;;;;;5051705;28;20165;-72
2023/09/16 00:32:53;;;;;;;8.35;4.88;;;14.50;99.90;;;;;;5051516;28;20232;-72
2023/09/16 00:35:19;;;;;;;11.40;5.30;;;14.50;99.90;;;;;;5033624;28;20208;-72
2023/09/16 00:37:46;;;;;;;8.55;5.03;;;14.40;99.90;;;;;;5051228;28;20531;-72
2023/09/16 00:40:12;;;;;;;11.70;5.07;;;14.30;99.90;;;;;;5051399;28;20184;-71
2023/09/16 00:42:38;;;;;;;8.65;4.90;;;14.30;99.90;;;;;;5051451;28;20169;-71
2023/09/16 00:45:10;;;;;;;7.93;4.45;;;14.30;99.90;;;;;;5051367;28;20643;-72
2023/09/16 00:47:40;;;;;;;8.07;4.85;;;14.40;99.90;;;;;;5051265;28;20235;-71
2023/09/16 00:50:07;;;;;;;11.07;5.13;;;14.40;99.90;;;;;;5042631;28;20644;-72
2023/09/16 00:52:38;;;;;;;12.65;5.05;;;14.30;99.90;;;;;;5031464;28;20217;-72
2023/09/16 00:55:04;;;;;;;9.35;4.45;;;14.40;99.90;;;;;;5031344;28;20651;-72
2023/09/16 00:57:32;;;;;;;7.32;4.95;;;14.30;99.90;;;;;;5031296;28;20193;-74
2023/09/16 00:59:58;;;;;;;12.23;5.20;;;14.20;99.90;;;;;;5029862;28;20177;-73
2023/09/16 01:02:24;;;;;;;9.90;5.20;;;14.20;99.90;;;;;;5031374;28;20660;-73
2023/09/16 01:04:50;;;;;;;8.05;4.85;;;14.20;99.90;;;;;;5031609;28;20178;-73
2023/09/16 01:07:17;;;;;;;8.55;5.05;;;14.10;99.90;;;;;;5031253;28;20272;-73
2023/09/16 01:09:43;;;;;;;8.88;4.82;;;14.30;99.90;;;;;;5031246;28;20173;-73
2023/09/16 01:12:10;;;;;;;9.40;4.90;;;;;;;;;;5031079;28;20220;-72
2023/09/16 01:14:37;;;;;;;7.85;4.88;;;14.30;99.90;;;;;;5029737;28;20181;-72
2023/09/16 01:17:08;;;;;;;9.60;5.28;;;14.30;99.90;;;;;;5031023;28;20182;-72
2023/09/16 01:19:58;;;;;;;9.20;4.90;;;14.30;99.90;;;;;;5031250;28;20177;-72
2023/09/16 01:22:24;;;;;;;8.25;4.97;;;14.20;99.90;;;;;;5029887;28;20691;-72
2023/09/16 01:24:53;;;;;;;11.10;5.03;;;14.20;99.90;;;;;;5030987;28;20185;-73
2023/09/16 01:27:20;;;;;;;9.07;5.00;;;14.20;99.90;;;;;;5030770;28;20653;-73
2023/09/16 01:29:46;;;;;;;8.98;5.18;;;14.10;99.90;;;;;;5030849;28;20175;-72
2023/09/16 01:32:14;;;;;;;9.70;5.15;;;14.00;99.90;;;;;;5031131;28;20198;-72
2023/09/16 01:34:44;;;;;;;9.00;5.50;;;14.00;99.90;;;;;;5030900;28;20170;-73
2023/09/16 01:37:16;;;;;;;8.18;5.25;;;14.00;99.90;;;;;;5030841;28;20178;-73
2023/09/16 01:39:46;;;;;;;13.13;5.40;;;14.00;99.90;;;;;;5030900;28;20177;-73
2023/09/16 01:42:13;;;;;;;10.60;5.47;;;14.00;99.90;;;;;;5028707;28;20179;-73
2023/09/16 01:44:39;;;;;;;11.52;5.45;;;13.90;99.90;;;;;;5030685;28;20174;-73
2023/09/16 01:47:07;;;;;;;10.10;5.22;;;14.00;99.90;;;;;;5030719;28;20182;-73
2023/09/16 01:49:32;;;;;;;9.02;5.13;;;13.80;99.90;;;;;;5030473;28;20220;-72
2023/09/16 01:51:58;;;;;;;13.10;5.95;;;13.80;99.90;;;;;;5030507;28;20198;-72
2023/09/16 01:54:24;;;;;;;15.10;5.85;;;13.80;99.90;;;;;;5030405;28;20169;-73
2023/09/16 01:56:50;;;;;;;10.25;4.95;;;13.80;99.90;;;;;;5030522;28;20667;-73
2023/09/16 01:59:15;;;;;;;7.90;4.93;;;13.80;99.90;;;;;;5030335;28;20181;-73
2023/09/16 02:01:43;;;;;;;8.75;4.95;;;;;;;;;;5030576;28;20629;-73
2023/09/16 02:04:08;;;;;;;10.68;4.93;;;13.90;99.90;;;;;;5030337;28;20175;-73
2023/09/16 02:06:34;;;;;;;9.25;5.10;;;13.90;99.90;;;;;;5030112;28;20633;-73
2023/09/16 02:08:59;;;;;;;12.13;5.90;;;13.90;99.90;;;;;;5030289;28;20602;-74
2023/09/16 02:11:25;;;;;;;9.82;5.10;;;13.80;99.90;;;;;;5030398;28;20178;-73
2023/09/16 02:13:51;;;;;;;10.93;5.70;;;13.60;99.90;;;;;;5029885;28;20705;-70
2023/09/16 02:16:16;;;;;;;12.02;5.22;;;13.70;99.90;;;;;;5030116;28;20208;-73
2023/09/16 02:18:42;;;;;;;10.57;5.47;;;13.80;99.90;;;;;;5013737;28;20174;-70
2023/09/16 02:21:08;;;;;;;10.32;4.82;;;13.80;99.90;;;;;;5033186;28;20723;-71
2023/09/16 02:23:33;;;;;;;9.18;5.47;;;13.80;99.90;;;;;;5033717;28;20185;-71
2023/09/16 02:26:02;;;;;;;9.07;4.85;;;13.80;99.90;;;;;;5048571;28;20703;-71
2023/09/16 02:28:28;;;;;;;9.07;5.47;;;13.80;99.90;;;;;;5033646;28;20366;-71
2023/09/16 02:30:54;;;;;;;14.52;5.57;;;13.90;99.90;;;;;;5033942;28;20173;-72
2023/09/16 02:33:20;;;;;;;9.30;5.13;;;13.90;99.90;;;;;;5033910;28;20209;-71
2023/09/16 02:35:46;;;;;;;8.98;5.30;;;14.00;99.90;;;;;;5015939;28;20177;-70
2023/09/16 02:38:12;;;;;;;10.05;4.80;;;14.00;99.90;;;;;;5033580;28;20185;-70
2023/09/16 02:40:41;;;;;;;10.20;4.78;;;14.00;99.90;;;;;;5035503;28;20245;-71
2023/09/16 02:43:07;;;;;;;8.02;4.82;;;14.10;99.90;;;;;;5053615;28;20660;-71
2023/09/16 02:45:39;;;;;;;8.75;4.97;;;14.00;99.90;;;;;;5053685;28;20181;-71
2023/09/16 02:48:04;;;;;;;9.25;4.90;;;14.10;99.90;;;;;;5053465;28;20204;-71
2023/09/16 02:50:38;;;;;;;9.38;5.00;;;14.10;99.90;;;;;;5053492;28;20636;-71
2023/09/16 02:53:05;;;;;;;7.57;4.70;;;14.00;99.90;;;;;;5035470;28;20281;-72
2023/09/16 02:55:33;;;;;;;6.97;4.60;;;14.10;99.90;;;;;;5053397;28;20640;-72
2023/09/16 02:57:59;;;;;;;7.05;4.78;;;14.10;99.90;;;;;;5053056;28;20188;-73
2023/09/16 03:00:25;;;;;;;7.55;4.60;;;14.00;99.90;;;;;;5035445;28;20181;-72
2023/09/16 03:02:51;;;;;;;9.70;4.93;;;14.00;99.90;;;;;;5053230;28;20181;-72
2023/09/16 03:05:17;;;;;;;8.95;4.47;;;14.00;99.90;;;;;;5053066;28;20249;-71
2023/09/16 03:07:46;;;;;;;10.38;4.95;;;14.00;99.90;;;;;;5053016;28;20178;-72
2023/09/16 03:10:12;;;;;;;9.30;4.85;;;13.90;99.90;;;;;;5052977;28;20644;-72
2023/09/16 03:12:37;;;;;;;8.02;5.32;;;13.90;99.90;;;;;;5035146;28;20706;-71
2023/09/16 03:15:04;;;;;;;8.35;5.65;;;13.80;99.90;;;;;;5053033;28;20189;-71
2023/09/16 03:17:29;;;;;;;8.75;5.25;;;15.50;99.90;;;;;;5039873;28;20676;-72
2023/09/16 03:19:56;;;;;;;9.98;4.72;;;13.80;99.90;;;;;;5032778;28;20201;-71
2023/09/16 03:22:22;;;;;;;6.97;4.43;;;13.70;99.90;;;;;;5014975;28;20178;-72
2023/09/16 03:24:48;;;;;;;11.30;4.90;;;13.70;99.90;;;;;;5032508;28;20615;-71
2023/09/16 03:27:14;;;;;;;7.88;4.95;;;13.60;99.90;;;;;;5032644;28;20700;-71
2023/09/16 03:29:40;;;;;;;8.00;4.78;;;13.60;99.90;;;;;;5032358;28;20185;-70
2023/09/16 03:32:05;;;;;;;9.18;4.82;;;13.50;99.90;;;;;;5031195;28;20205;-71
2023/09/16 03:34:31;;;;;;;12.05;5.32;;;13.50;99.90;;;;;;5032497;28;20220;-71
2023/09/16 03:36:56;;;;;;;10.25;5.50;;;13.50;99.90;;;;;;5032341;28;20645;-71
2023/09/16 03:39:22;;;;;;;8.65;5.53;;;13.50;99.90;;;;;;5014984;28;20205;-70
2023/09/16 03:41:48;;;;;;;9.43;5.03;;;13.40;99.90;;;;;;5032652;28;20604;-71
2023/09/16 03:44:15;;;;;;;12.80;5.13;;;13.30;99.90;;;;;;5032267;28;20545;-71
2023/09/16 03:46:40;;;;;;;10.38;5.82;;;13.30;99.90;;;;;;5014832;28;20266;-70
2023/09/16 03:49:06;;;;;;;10.75;5.13;;;13.30;99.90;;;;;;5032199;28;20313;-71
2023/09/16 03:51:34;;;;;;;11.20;5.38;;;13.40;99.90;;;;;;5030581;28;20659;-71
2023/09/16 03:54:00;;;;;;;11.00;5.25;;;13.40;99.90;;;;;;5021140;28;20644;-71
2023/09/16 03:56:25;;;;;;;6.88;4.95;;;13.30;99.90;;;;;;5032421;28;20170;-71
2023/09/16 03:58:52;;;;;;;8.18;4.65;;;12.20;99.90;;;;;;5031900;28;20225;-71
2023/09/16 04:01:18;;;;;;;10.30;5.05;;;13.30;99.90;;;;;;5014365;28;20213;-71
2023/09/16 04:03:43;;;;;;;6.90;5.03;;;13.30;99.90;;;;;;5014111;28;20795;-71
2023/09/16 04:06:09;;;;;;;8.38;5.07;;;13.30;99.90;;;;;;5032095;28;20181;-71
2023/09/16 04:08:35;;;;;;;9.45;5.00;;;13.20;99.90;;;;;;5032026;28;20621;-72
2023/09/16 04:11:01;;;;;;;8.43;5.45;;;13.30;99.90;;;;;;5031990;28;20186;-72
2023/09/16 04:13:27;;;;;;;9.13;5.00;;;13.30;99.90;;;;;;5031964;28;20233;-72
2023/09/16 04:15:54;;;;;;;12.73;5.65;;;;;;;;;;5031690;28;20209;-72
2023/09/16 04:18:20;;;;;;;8.20;4.97;;;13.20;99.90;;;;;;5031578;28;20197;-72
2023/09/16 04:20:50;;;;;;;9.30;5.15;;;13.40;99.90;;;;;;5036174;28;20585;-72
2023/09/16 04:23:16;;;;;;;9.75;5.00;;;13.40;99.90;;;;;;5051833;28;20173;-72
2023/09/16 04:25:42;;;;;;;8.55;5.05;;;13.40;99.90;;;;;;5018873;28;20221;-72
2023/09/16 04:28:08;;;;;;;8.20;5.03;;;13.40;99.90;;;;;;5011848;28;20170;-73
2023/09/16 04:30:46;;;;;;;9.38;5.20;;;13.50;99.90;;;;;;5009846;28;20202;-72
2023/09/16 04:33:11;;;;;;;9.80;5.43;;;13.40;99.90;;;;;;5011753;28;20206;-72
2023/09/16 04:35:45;;;;;;;9.20;5.45;;;13.40;99.90;;;;;;5011622;28;20162;-72
2023/09/16 04:38:11;;;;;;;9.82;5.25;;;13.40;99.90;;;;;;5011937;28;20182;-72
2023/09/16 04:40:38;;;;;;;10.63;5.55;;;13.20;99.90;;;;;;5011748;28;20167;-72
2023/09/16 04:43:06;;;;;;;10.65;6.03;;;13.30;99.90;;;;;;5011139;28;20178;-72
2023/09/16 04:45:31;;;;;;;9.40;5.53;;;13.30;99.90;;;;;;5011739;28;20554;-72
2023/09/16 04:47:57;;;;;;;10.57;5.72;;;13.40;99.90;;;;;;5011572;28;20286;-72
2023/09/16 04:50:23;;;;;;;18.40;5.85;;;;;;;;;;5011704;28;20297;-72
2023/09/16 04:52:50;;;;;;;8.45;5.43;;;13.30;99.90;;;;;;5011459;28;20302;-71
2023/09/16 04:55:15;;;;;;;11.93;5.40;;;13.40;99.90;;;;;;5010514;28;20330;-72
2023/09/16 04:57:41;;;;;;;9.43;5.00;;;13.50;99.90;;;;;;5011613;28;20260;-72
2023/09/16 05:00:07;;;;;;;7.65;5.13;;;13.60;99.90;;;;;;5011242;28;20182;-71
2023/09/16 05:02:36;;;;;;;11.98;5.10;;;13.60;99.90;;;;;;5011638;28;20187;-71
2023/09/16 05:05:02;;;;;;;7.40;4.95;;;13.60;99.90;;;;;;5011501;28;20178;-71
2023/09/16 05:07:28;;;;;;;8.15;5.03;;;13.70;99.90;;;;;;5011333;28;20202;-71
2023/09/16 05:09:55;;;;;;;8.13;5.70;;;13.70;99.90;;;;;;5011495;28;20672;-73
2023/09/16 05:12:20;;;;;;;9.30;6.38;;;13.80;99.90;;;;;;5011075;28;20588;-71
2023/09/16 05:14:46;;;;;;;13.77;6.20;;;13.90;99.90;;;;;;5011156;28;20171;-71
2023/09/16 05:17:12;;;;;;;9.25;6.25;;;13.90;99.90;;;;;;5011201;28;20162;-71
2023/09/16 05:19:37;;;;;;;11.38;7.30;;;14.00;99.90;;;;;;5026377;28;20163;-71
2023/09/16 05:22:04;;;;;;;10.77;7.28;;;14.10;99.90;;;;;;5011226;28;20175;-71
2023/09/16 05:24:32;;;;;;;10.82;6.88;;;14.20;99.90;;;;;;5012844;28;20262;-73
2023/09/16 05:26:59;;;;;;;10.38;6.13;;;14.30;99.90;;;;;;5029564;28;20229;-71
2023/09/16 05:29:24;;;;;;;7.30;5.57;;;14.30;99.90;;;;;;5017580;28;20656;-72
2023/09/16 05:31:50;;;;;;;9.50;5.97;;;14.20;99.90;;;;;;5027179;28;20680;-72
2023/09/16 05:34:16;;;;;;;8.40;5.32;;;13.80;99.90;;;;;;5028175;28;20240;-72
2023/09/16 05:36:41;;;;;;;11.20;5.70;;;13.90;99.90;;;;;;5011165;28;20541;-71
2023/09/16 05:39:07;;;;;;;12.65;6.40;;;13.80;99.90;;;;;;5011244;28;20184;-72
2023/09/16 05:41:33;;;;;;;9.20;6.10;;;13.70;99.90;;;;;;5009673;28;20203;-72
2023/09/16 05:43:58;;;;;;;7.85;5.68;;;13.70;99.90;;;;;;5011126;28;20205;-72
2023/09/16 05:46:24;;;;;;;9.07;6.18;;;13.80;99.90;;;;;;5013608;28;20179;-72
2023/09/16 05:48:50;;;;;;;10.02;6.70;;;;;;;;;;5030805;28;20177;-70
2023/09/16 05:51:16;;;;;;;10.13;6.38;;;14.00;99.90;;;;;;5030848;28;20235;-73
2023/09/16 05:53:42;;;;;;;8.10;6.20;;;14.10;99.90;;;;;;5030647;28;20241;-71
2023/09/16 05:56:08;;;;;;;11.18;6.13;;;14.20;99.90;;;;;;5033911;28;20177;-73
2023/09/16 05:58:35;;;;;;;9.93;6.70;;;14.20;99.90;;;;;;5034810;28;20186;-73
2023/09/16 06:01:00;;;;;;;10.30;6.45;;;14.20;99.90;;;;;;5034802;28;20253;-73
2023/09/16 06:03:26;;;;;;;13.27;7.00;;;14.00;99.90;;;;;;5033281;28;20269;-73
2023/09/16 06:06:01;;;;;;;12.50;7.65;;;13.90;99.90;;;;;;5033293;28;20174;-73
2023/09/16 06:08:27;;;;;;;13.30;7.78;;;14.00;99.90;;;;;;5033414;28;20177;-73
2023/09/16 06:10:52;;;;;;;10.75;7.78;;;14.20;99.90;;;;;;5034635;28;20667;-73
2023/09/16 06:13:18;;;;;;;12.15;7.68;;;14.30;99.90;;;;;;5034615;28;20213;-73
2023/09/16 06:15:44;;;;;;;14.73;8.35;;;14.50;99.90;;;;;;5034514;28;20174;-73
2023/09/16 06:18:09;;;;;;;13.35;7.75;;;14.60;99.90;;;;;;5033268;28;20657;-73
2023/09/16 06:20:35;;;;;;;10.10;7.28;;;14.70;99.90;;;;;;5034414;28;20174;-72
2023/09/16 06:23:03;;;;;;;11.57;7.60;;;14.90;99.90;;;;;;5031074;28;20630;-72
2023/09/16 06:25:30;;;;;;;12.32;8.05;;;15.00;99.90;;;;;;5016888;28;20178;-72
2023/09/16 06:27:58;;;;;;;12.63;7.03;;;15.10;99.90;;;;;;5033989;28;20182;-73
2023/09/16 06:30:24;;;;;;;10.82;7.07;;;15.20;99.90;;;;;;5033802;28;20165;-72
2023/09/16 06:32:52;;;;;;;13.15;7.43;;;15.40;99.90;;;;;;5044799;28;20209;-73
2023/09/16 06:35:18;;;;;;;12.98;7.18;;;15.40;99.90;;;;;;5053644;28;20247;-74
2023/09/16 06:37:43;;;;;;;11.45;7.65;;;15.70;99.90;;;;;;5051153;28;20635;-73
2023/09/16 06:40:09;;;;;;;11.32;7.63;;;15.60;99.90;;;;;;5034325;28;20633;-73
2023/09/16 06:42:35;;;;;;;12.07;7.43;;;15.70;99.90;;;;;;5016094;28;20192;-74
2023/09/16 06:45:01;;;;;;;11.90;7.35;;;15.70;99.90;;;;;;5034000;28;20257;-74
2023/09/16 06:47:26;;;;;;;10.65;6.72;;;15.70;99.90;;;;;;5033584;28;20548;-72
2023/09/16 06:49:54;;;;;;;10.82;7.15;;;15.70;99.90;;;;;;5033760;28;20170;-74
2023/09/16 06:52:22;;;;;;;15.00;8.02;;;15.70;99.90;;;;;;5033645;28;20244;-73
2023/09/16 06:54:48;;;;;;;10.05;6.55;;;15.70;99.90;;;;;;5032828;28;20212;-74
2023/09/16 06:57:14;;;;;;;8.23;7.13;;;15.70;99.90;;;;;;5015892;28;20189;-74
2023/09/16 06:59:40;;;;;;;9.77;7.32;;;15.70;99.90;;;;;;5033178;28;20170;-74
2023/09/16 07:02:06;;;;;;;10.10;7.50;;;15.60;99.90;;;;;;5033404;28;20206;-76
2023/09/16 07:04:31;;;;;;;14.75;7.20;;;15.60;99.90;;;;;;5032635;28;20661;-75
2023/09/16 07:06:57;;;;;;;12.15;7.70;;;15.40;99.90;;;;;;5038092;28;20184;-76
2023/09/16 07:09:23;;;;;;;17.35;8.02;;;15.50;99.90;;;;;;5040322;28;20236;-77
2023/09/16 07:11:49;;;;;;;11.55;8.48;;;15.50;99.90;;;;;;5038065;28;20264;-76
2023/09/16 07:14:14;;;;;;;11.90;8.57;;;15.50;99.90;;;;;;5033035;28;20426;-75
2023/09/16 07:16:42;;;;;;;10.32;8.00;;;15.50;99.90;;;;;;5033312;28;20681;-77
2023/09/16 07:19:08;;;;;;;12.50;7.97;;;15.60;99.90;;;;;;5027847;28;20170;-73
2023/09/16 07:21:34;;;;;;;11.40;8.48;;;15.60;99.90;;;;;;5012111;28;20186;-73
2023/09/16 07:24:01;;;;;;;15.68;9.90;;;15.70;99.90;;;;;;5024838;28;20173;-73
2023/09/16 07:26:28;;;;;;;14.00;9.75;;;15.70;99.90;;;;;;5032200;28;20306;-75
2023/09/16 07:28:54;;;;;;;14.27;10.38;;;15.70;99.90;;;;;;5032419;28;20184;-75
2023/09/16 07:31:19;;;;;;;16.30;10.75;;;15.70;99.90;;;;;;5032592;28;20182;-75
2023/09/16 07:33:46;;;;;;;19.60;12.23;;;15.70;99.90;;;;;;5016259;28;20305;-74
2023/09/16 07:36:12;;;;;;;18.15;11.75;;;15.80;99.90;;;;;;5052609;28;20185;-75
2023/09/16 07:38:37;;;;;;;21.58;11.18;;;16.90;99.90;;;;;;5044277;28;20304;-75
2023/09/16 07:41:03;;;;;;;19.70;12.10;;;16.20;99.90;;;;;;5032893;28;20220;-75
2023/09/16 07:43:28;;;;;;;16.52;12.13;;;15.80;99.90;;;;;;5032420;28;20664;-75
2023/09/16 07:45:54;;;;;;;18.77;12.95;;;15.80;99.90;;;;;;5032812;28;20204;-74
2023/09/16 07:48:19;;;;;;;23.05;13.10;;;15.80;99.90;;;;;;5030355;28;20645;-75
2023/09/16 07:50:45;;;;;;;19.85;13.38;;;15.80;99.90;;;;;;5032406;28;20194;-75
2023/09/16 07:53:11;;;;;;;24.50;14.60;;;15.80;99.90;;;;;;5032619;28;20217;-75
2023/09/16 07:55:39;;;;;;;22.48;14.60;;;14.90;99.90;;;;;;5032722;28;20174;-75
2023/09/16 07:58:04;;;;;;;25.67;16.35;;;15.50;99.90;;;;;;5032180;28;20185;-75
2023/09/16 08:00:30;;;;;;;23.08;15.73;;;16.00;99.90;;;;;;5032242;28;20170;-75
2023/09/16 08:02:56;;;;;;;21.50;14.75;;;15.70;99.90;;;;;;5032074;28;20632;-75
2023/09/16 08:05:21;;;;;;;23.10;15.68;;;15.80;99.90;;;;;;5032076;28;20182;-76
2023/09/16 08:07:47;;;;;;;24.02;16.30;;;15.90;99.90;;;;;;5031899;28;20162;-76
2023/09/16 08:10:13;;;;;;;23.63;16.40;;;15.90;99.90;;;;;;5031562;28;20524;-75
2023/09/16 08:12:39;;;;;;;22.92;15.73;;;16.00;99.90;;;;;;5032035;28;20703;-75
2023/09/16 08:15:06;;;;;;;25.90;17.20;;;16.00;99.90;;;;;;5032242;28;20170;-76
2023/09/16 08:17:33;;;;;;;19.23;14.75;;;16.10;99.90;;;;;;5013880;28;20209;-76
2023/09/16 08:20:00;;;;;;;21.95;16.33;;;16.10;99.90;;;;;;5032063;28;20170;-75
2023/09/16 08:22:27;;;;;;;23.95;17.85;;;16.30;99.90;;;;;;5031799;28;20244;-76
2023/09/16 08:24:53;;;;;;;26.17;18.05;;;16.30;99.90;;;;;;5032052;28;20197;-75
2023/09/16 08:27:20;;;;;;;27.58;18.58;;;16.40;99.90;;;;;;5031479;28;20253;-75
2023/09/16 08:29:46;;;;;;;24.92;18.92;;;16.50;99.90;;;;;;5031421;28;20216;-75
2023/09/16 08:32:12;;;;;;;27.02;20.17;;;16.30;99.90;;;;;;5031362;28;20181;-76
2023/09/16 08:34:37;;;;;;;35.45;20.73;;;16.30;99.90;;;;;;5031277;28;20190;-76
2023/09/16 08:37:03;;;;;;;30.80;21.13;;;16.30;99.90;;;;;;5048913;28;20173;-76
2023/09/16 08:39:29;;;;;;;29.05;20.38;;;16.40;99.90;;;;;;5047658;28;20558;-76
2023/09/16 08:42:40;;;;;;;32.08;21.38;;;16.40;99.90;;;;;;5031486;28;20170;-75
2023/09/16 08:45:10;;;;;;;27.60;20.13;;;16.30;99.90;;;;;;5031701;28;20691;-75
2023/09/16 08:47:42;;;;;;;32.63;23.00;;;16.40;99.90;;;;;;5013931;28;20556;-75
2023/09/16 08:50:10;;;;;;;28.17;20.88;;;16.30;99.90;;;;;;5031171;28;20201;-75
2023/09/16 08:52:55;;;;;;;29.85;21.20;;;16.30;99.90;;;;;;5028832;28;20236;-75
2023/09/16 08:55:21;;;;;;;32.03;21.95;;;16.30;99.90;;;;;;5035571;28;20238;-75
2023/09/16 08:58:00;;;;;;;30.50;22.20;;;16.50;99.90;;;;;;5013116;28;20265;-75
2023/09/16 09:00:26;;;;;;;29.25;21.02;;;16.60;99.90;;;;;;5011652;28;20260;-76
2023/09/16 09:02:52;;;;;;;30.38;22.77;;;16.50;99.90;;;;;;5026591;28;20655;-76
2023/09/16 09:05:19;;;;;;;29.95;21.13;;;16.60;99.90;;;;;;5030775;28;20648;-75
2023/09/16 09:07:45;;;;;;;30.17;20.15;;;16.70;99.90;;;;;;5030987;28;20209;-74
2023/09/16 09:10:12;;;;;;;25.08;19.60;;;16.80;99.90;;;;;;5013138;28;20177;-74
2023/09/16 09:12:42;;;;;;;26.35;19.98;;;16.70;99.90;;;;;;5031052;28;20232;-82
2023/09/16 09:15:13;;;;;;;24.90;19.52;;;16.90;99.90;;;;;;5030475;28;20210;-75
2023/09/16 09:17:42;;;;;;;29.42;21.05;;;17.00;99.90;;;;;;5030394;28;20259;-75
2023/09/16 09:20:19;;;;;;;28.25;21.00;;;16.90;99.90;;;;;;5014727;28;20581;-75
2023/09/16 09:22:47;;;;;;;25.83;19.70;;;16.90;99.90;;;;;;5030377;28;20258;-74
2023/09/16 09:25:13;;;;;;;26.90;20.60;;;16.80;99.90;;;;;;5030592;28;20186;-77
2023/09/16 09:27:38;;;;;;;29.88;20.52;;;16.80;99.90;;;;;;5030806;28;20189;-74
2023/09/16 09:30:05;;;;;;;27.70;20.08;;;16.80;99.90;;;;;;5029471;28;20688;-74
2023/09/16 09:32:33;;;;;;;24.05;19.15;;;16.80;99.90;;;;;;5030431;28;20213;-75
2023/09/16 09:35:05;;;;;;;31.73;20.23;;;16.70;99.90;;;;;;5030915;28;20232;-74
2023/09/16 09:37:31;;;;;;;29.63;19.77;;;16.80;99.90;;;;;;5030698;28;20735;-75
2023/09/16 09:40:13;;;;;;;27.42;20.13;;;16.50;99.90;;;;;;5030840;28;20178;-76
2023/09/16 09:42:49;;;;;;;28.38;19.50;;;16.50;99.90;;;;;;5030356;28;20649;-77
2023/09/16 09:45:21;;;;;;;26.95;19.58;;;16.60;99.90;;;;;;5030978;28;20265;-75
2023/09/16 09:47:49;;;;;;;28.13;20.45;;;16.60;99.90;;;;;;5032195;28;20652;-75
2023/09/16 09:50:17;;;;;;;27.92;19.65;;;16.60;99.90;;;;;;5032062;28;20193;-75
2023/09/16 09:52:46;;;;;;;28.35;19.85;;;16.50;99.90;;;;;;5030557;28;20206;-76
2023/09/16 09:55:15;;;;;;;27.55;19.52;;;16.50;99.90;;;;;;5028585;28;20391;-76
2023/09/16 09:57:41;;;;;;;29.10;19.15;;;16.50;99.90;;;;;;5030579;28;20166;-74
2023/09/16 10:00:07;;;;;;;26.10;19.80;;;16.50;99.90;;;;;;5029941;28;20208;-77
2023/09/16 10:02:32;;;;;;;28.25;20.50;;;16.50;99.90;;;;;;5019766;28;20185;-74
2023/09/16 10:05:02;;;;;;;28.70;19.52;;;16.50;99.90;;;;;;5028779;28;20182;-76
2023/09/16 10:07:29;;;;;;;28.30;19.13;;;16.60;99.90;;;;;;5029999;28;20166;-77
2023/09/16 10:09:55;;;;;;;29.92;20.40;;;16.50;99.90;;;;;;5028411;28;20174;-76
2023/09/16 10:12:21;;;;;;;24.50;18.70;;;16.60;99.90;;;;;;5039452;28;20193;-74
2023/09/16 10:14:48;;;;;;;27.58;19.48;;;17.10;99.90;;;;;;5049781;28;20196;-74
2023/09/16 10:17:15;;;;;;;27.88;18.98;;;16.70;99.90;;;;;;5032690;28;20182;-75
2023/09/16 10:19:42;;;;;;;27.52;20.30;;;16.70;99.90;;;;;;5030001;28;20174;-77
2023/09/16 10:22:08;;;;;;;28.00;21.27;;;16.80;99.90;;;;;;5029890;28;20158;-76
2023/09/16 10:24:34;;;;;;;30.95;20.48;;;16.70;99.90;;;;;;5011364;28;20579;-74
2023/09/16 10:27:21;;;;;;;29.75;21.10;;;16.80;99.90;;;;;;5012416;28;20221;-74
2023/09/16 10:29:50;;;;;;;29.83;20.27;;;16.90;99.90;;;;;;5010447;28;20549;-74
2023/09/16 10:32:17;;;;;;;28.77;21.15;;;17.00;99.90;;;;;;5022276;28;20209;-73
2023/09/16 10:34:45;;;;;;;34.70;23.20;;;17.00;99.90;;;;;;5030293;28;20663;-76
2023/09/16 10:37:19;;;;;;;32.83;22.85;;;17.00;99.90;;;;;;5029994;28;20166;-74
2023/09/16 10:39:49;;;;;;;31.05;21.85;;;17.20;99.90;;;;;;5029200;28;20689;-74
2023/09/16 10:42:21;;;;;;;37.60;23.73;;;17.20;99.90;;;;;;5031865;28;20668;-73
2023/09/16 10:44:48;;;;;;;33.92;23.63;;;17.20;99.90;;;;;;5031838;28;20182;-73
2023/09/16 10:47:16;;;;;;;32.20;23.55;;;17.20;99.90;;;;;;5033479;28;20166;-74
2023/09/16 10:49:45;;;;;;;41.33;24.85;;;17.20;99.90;;;;;;5033383;28;20177;-76
2023/09/16 10:52:18;;;;;;;34.03;23.73;;;17.30;99.90;;;;;;5032121;28;20186;-76
2023/09/16 10:55:08;;;;;;;35.53;23.05;;;17.40;99.90;;;;;;5015876;28;20178;-75
2023/09/16 10:57:39;;;;;;;33.20;23.10;;;17.40;99.90;;;;;;5033140;28;20185;-76
2023/09/16 11:00:10;;;;;;;34.53;24.20;;;17.50;99.90;;;;;;5033420;28;20213;-74
2023/09/16 11:03:03;;;;;;;33.83;22.95;;;17.70;99.90;;;;;;5033640;28;20264;-75
2023/09/16 11:05:30;;;;;;;30.67;22.27;;;17.80;99.90;;;;;;5029639;28;20178;-74
2023/09/16 11:07:57;;;;;;;31.77;22.08;;;17.80;99.90;;;;;;5033486;28;20240;-74
2023/09/16 11:10:23;;;;;;;35.10;23.10;;;17.90;99.90;;;;;;5033451;28;20667;-74
2023/09/16 11:12:50;;;;;;;36.58;23.00;;;17.80;99.90;;;;;;5015221;28;20316;-74
2023/09/16 11:15:17;;;;;;;32.65;22.67;;;17.70;99.90;;;;;;5032943;28;20165;-75
2023/09/16 11:17:43;;;;;;;33.85;22.38;;;17.70;99.90;;;;;;5033052;28;20684;-75
2023/09/16 11:20:30;;;;;;;36.88;23.50;;;17.80;99.90;;;;;;5033161;28;20224;-75
2023/09/16 11:22:57;;;;;;;34.65;22.95;;;17.70;99.90;;;;;;5032870;28;20259;-75
2023/09/16 11:25:22;;;;;;;32.33;22.40;;;17.70;99.90;;;;;;5032946;28;20166;-74
2023/09/16 11:27:50;;;;;;;33.63;23.13;;;17.70;99.90;;;;;;5032990;28;20223;-76
2023/09/16 11:30:16;;;;;;;36.65;23.23;;;17.70;99.90;;;;;;5032776;28;20185;-75
2023/09/16 11:33:02;;;;;;;38.63;23.48;;;17.70;99.90;;;;;;5032867;28;20628;-75
2023/09/16 11:35:28;;;;;;;39.22;22.52;;;17.70;99.90;;;;;;5032782;28;20177;-76
2023/09/16 11:37:55;;;;;;;36.47;23.48;;;17.70;99.90;;;;;;5032673;28;20189;-75
2023/09/16 11:40:29;;;;;;;33.33;23.35;;;17.60;99.90;;;;;;5032688;28;20212;-76
2023/09/16 11:42:55;;;;;;;39.60;24.20;;;17.80;99.90;;;;;;5032483;28;20261;-76
2023/09/16 11:45:22;;;;;;;35.75;23.58;;;17.70;99.90;;;;;;5032521;28;20170;-76
2023/09/16 11:47:49;;;;;;;40.50;24.60;;;17.70;99.90;;;;;;5032705;28;20180;-76
2023/09/16 11:50:22;;;;;;;38.05;23.73;;;17.70;99.90;;;;;;5032526;28;20177;-76
2023/09/16 11:52:48;;;;;;;43.33;25.83;;;17.70;99.90;;;;;;5031527;28;20209;-76
2023/09/16 11:55:15;;;;;;;39.20;24.00;;;17.70;99.90;;;;;;5032025;28;20636;-75
2023/09/16 11:57:42;;;;;;;41.47;24.52;;;17.70;99.90;;;;;;5033777;28;20182;-76
2023/09/16 12:00:09;;;;;;;43.83;23.88;;;17.80;99.90;;;;;;5036694;28;20641;-75
2023/09/16 12:02:35;;;;;;;41.22;24.15;;;17.80;99.90;;;;;;5038369;28;20181;-74
2023/09/16 12:05:03;;;;;;;42.53;24.55;;;17.90;99.90;;;;;;5031640;28;20185;-74
2023/09/16 12:07:30;;;;;;;41.15;25.15;;;17.80;99.90;;;;;;5032479;28;20178;-74
2023/09/16 12:09:58;;;;;;;46.55;25.05;;;17.80;99.90;;;;;;5031885;28;20174;-74
2023/09/16 12:12:25;;;;;;;43.20;24.73;;;17.90;99.90;;;;;;5031894;28;20205;-75
2023/09/16 12:14:51;;;;;;;45.88;26.02;;;17.80;99.90;;;;;;5031745;28;20236;-74
2023/09/16 12:17:18;;;;;;;44.30;24.73;;;17.90;99.90;;;;;;5030937;28;20182;-74
2023/09/16 12:19:51;;;;;;;43.25;25.17;;;17.90;99.90;;;;;;5031806;28;20182;-74
2023/09/16 12:22:17;;;;;;;45.63;24.80;;;17.90;99.90;;;;;;5031979;28;20177;-74
2023/09/16 12:24:43;;;;;;;42.55;24.83;;;17.90;99.90;;;;;;5013925;28;20524;-73
2023/09/16 12:27:09;;;;;;;44.90;25.55;;;17.90;99.90;;;;;;5031476;28;20217;-74
2023/09/16 12:29:34;;;;;;;42.15;26.13;;;17.90;99.90;;;;;;5031056;28;20185;-74
2023/09/16 12:32:10;;;;;;;40.60;25.10;;;18.00;99.90;;;;;;5031586;28;20170;-75
2023/09/16 12:34:36;;;;;;;45.03;25.80;;;18.10;99.90;;;;;;5031795;28;20243;-75
2023/09/16 12:37:02;;;;;;;44.58;25.65;;;18.10;99.90;;;;;;5031823;28;20181;-74
2023/09/16 12:39:29;;;;;;;48.30;26.38;;;18.10;99.90;;;;;;5031675;28;20699;-73